Terminal Aerodrome Forecast
Issued by NWS

Home | Current Version | Previous Version | Text Only | Print | Product List | Glossary On
Versions: 1 2 3 4 5 6 7 8 9 10 11 12 13 14 15 16 17 18
092
FTUS45 KFGZ 051906 AAA
TAFSEZ
TAF AMD
KSEZ 051906Z 0519/0618 04017G29KT P6SM FEW250
      TEMPO 0522/0601 04010KT=

USA.gov is the U.S. government's official web portal to all federal, state and local government web resources and services.